sensor_id;sensor_type;location;lat;lon;timestamp;P1;durP1;ratioP1;P2;durP2;ratioP2
60086;SDS011;45960;53.630;55.972;2023-06-10T00:00:45;8.10;;;4.00;;
60086;SDS011;45960;53.630;55.972;2023-06-10T00:01:46;13.15;;;4.50;;
60086;SDS011;45960;53.630;55.972;2023-06-10T00:02:51;11.75;;;4.32;;
60086;SDS011;45960;53.630;55.972;2023-06-10T00:03:55;7.70;;;3.92;;
60086;SDS011;45960;53.630;55.972;2023-06-10T00:04:56;17.38;;;4.15;;
60086;SDS011;45960;53.630;55.972;2023-06-10T00:05:57;11.32;;;4.63;;
60086;SDS011;45960;53.630;55.972;2023-06-10T00:07:02;7.80;;;4.00;;
60086;SDS011;45960;53.630;55.972;2023-06-10T00:08:05;12.50;;;4.43;;
60086;SDS011;45960;53.630;55.972;2023-06-10T00:09:11;13.73;;;4.63;;
60086;SDS011;45960;53.630;55.972;2023-06-10T00:10:15;11.90;;;4.50;;
60086;SDS011;45960;53.630;55.972;2023-06-10T00:11:16;12.18;;;4.85;;
60086;SDS011;45960;53.630;55.972;2023-06-10T00:12:18;11.05;;;4.43;;
60086;SDS011;45960;53.630;55.972;2023-06-10T00:13:20;10.48;;;4.43;;
60086;SDS011;45960;53.630;55.972;2023-06-10T00:14:21;9.68;;;5.72;;
60086;SDS011;45960;53.630;55.972;2023-06-10T00:15:25;12.73;;;4.45;;
60086;SDS011;45960;53.630;55.972;2023-06-10T00:16:27;14.35;;;5.03;;
60086;SDS011;45960;53.630;55.972;2023-06-10T00:17:29;14.43;;;6.00;;
60086;SDS011;45960;53.630;55.972;2023-06-10T00:18:30;10.07;;;4.28;;
60086;SDS011;45960;53.630;55.972;2023-06-10T00:19:35;16.25;;;5.00;;
60086;SDS011;45960;53.630;55.972;2023-06-10T00:20:46;10.38;;;4.38;;
60086;SDS011;45960;53.630;55.972;2023-06-10T00:21:50;13.25;;;4.82;;
60086;SDS011;45960;53.630;55.972;2023-06-10T00:22:53;17.30;;;4.55;;
60086;SDS011;45960;53.630;55.972;2023-06-10T00:23:55;11.88;;;4.82;;
60086;SDS011;45960;53.630;55.972;2023-06-10T00:25:01;15.40;;;3.78;;
60086;SDS011;45960;53.630;55.972;2023-06-10T00:26:05;12.82;;;4.97;;
60086;SDS011;45960;53.630;55.972;2023-06-10T00:27:06;16.77;;;4.57;;
60086;SDS011;45960;53.630;55.972;2023-06-10T00:28:09;9.82;;;3.97;;
60086;SDS011;45960;53.630;55.972;2023-06-10T00:29:10;11.20;;;4.60;;
60086;SDS011;45960;53.630;55.972;2023-06-10T00:30:11;11.27;;;4.28;;
60086;SDS011;45960;53.630;55.972;2023-06-10T00:31:13;12.18;;;4.53;;
60086;SDS011;45960;53.630;55.972;2023-06-10T00:32:14;11.50;;;4.88;;
60086;SDS011;45960;53.630;55.972;2023-06-10T00:33:15;17.52;;;4.43;;
60086;SDS011;45960;53.630;55.972;2023-06-10T00:34:17;8.45;;;4.35;;
60086;SDS011;45960;53.630;55.972;2023-06-10T00:35:21;13.90;;;4.68;;
60086;SDS011;45960;53.630;55.972;2023-06-10T00:36:23;12.48;;;4.65;;
60086;SDS011;45960;53.630;55.972;2023-06-10T00:37:29;10.70;;;4.35;;
60086;SDS011;45960;53.630;55.972;2023-06-10T00:38:31;8.57;;;3.63;;
60086;SDS011;45960;53.630;55.972;2023-06-10T00:39:35;8.70;;;4.47;;
60086;SDS011;45960;53.630;55.972;2023-06-10T00:40:49;12.90;;;4.30;;
60086;SDS011;45960;53.630;55.972;2023-06-10T00:41:50;11.35;;;4.63;;
60086;SDS011;45960;53.630;55.972;2023-06-10T00:42:53;9.88;;;3.70;;
60086;SDS011;45960;53.630;55.972;2023-06-10T00:43:56;13.38;;;4.30;;
60086;SDS011;45960;53.630;55.972;2023-06-10T00:44:57;11.40;;;3.90;;
60086;SDS011;45960;53.630;55.972;2023-06-10T00:45:58;12.52;;;4.00;;
60086;SDS011;45960;53.630;55.972;2023-06-10T00:47:01;12.55;;;4.13;;
60086;SDS011;45960;53.630;55.972;2023-06-10T00:48:03;9.15;;;4.05;;
60086;SDS011;45960;53.630;55.972;2023-06-10T00:49:05;15.40;;;4.15;;
60086;SDS011;45960;53.630;55.972;2023-06-10T00:50:06;22.58;;;4.65;;
60086;SDS011;45960;53.630;55.972;2023-06-10T00:51:09;9.73;;;4.00;;
60086;SDS011;45960;53.630;55.972;2023-06-10T00:52:11;9.43;;;4.60;;
60086;SDS011;45960;53.630;55.972;2023-06-10T00:53:14;10.70;;;4.10;;
60086;SDS011;45960;53.630;55.972;2023-06-10T00:54:16;10.15;;;4.15;;
60086;SDS011;45960;53.630;55.972;2023-06-10T00:55:18;9.40;;;3.60;;
60086;SDS011;45960;53.630;55.972;2023-06-10T00:56:20;6.75;;;3.42;;
60086;SDS011;45960;53.630;55.972;2023-06-10T00:57:21;8.20;;;3.95;;
60086;SDS011;45960;53.630;55.972;2023-06-10T00:58:25;10.98;;;4.28;;
60086;SDS011;45960;53.630;55.972;2023-06-10T00:59:28;11.40;;;3.80;;
60086;SDS011;45960;53.630;55.972;2023-06-10T01:00:32;8.38;;;4.15;;
60086;SDS011;45960;53.630;55.972;2023-06-10T01:01:41;6.90;;;3.45;;
60086;SDS011;45960;53.630;55.972;2023-06-10T01:02:44;14.20;;;4.40;;
60086;SDS011;45960;53.630;55.972;2023-06-10T01:03:47;6.93;;;4.05;;
60086;SDS011;45960;53.630;55.972;2023-06-10T01:04:52;11.57;;;3.47;;
60086;SDS011;45960;53.630;55.972;2023-06-10T01:05:57;6.65;;;3.35;;
60086;SDS011;45960;53.630;55.972;2023-06-10T01:07:24;8.73;;;3.30;;
60086;SDS011;45960;53.630;55.972;2023-06-10T01:08:35;9.73;;;3.53;;
60086;SDS011;45960;53.630;55.972;2023-06-10T01:14:12;8.05;;;3.55;;
60086;SDS011;45960;53.630;55.972;2023-06-10T01:15:16;9.73;;;3.45;;
60086;SDS011;45960;53.630;55.972;2023-06-10T01:16:22;13.02;;;3.72;;
60086;SDS011;45960;53.630;55.972;2023-06-10T01:17:24;8.43;;;3.25;;
60086;SDS011;45960;53.630;55.972;2023-06-10T01:18:30;11.30;;;4.18;;
60086;SDS011;45960;53.630;55.972;2023-06-10T01:19:34;6.22;;;3.65;;
60086;SDS011;45960;53.630;55.972;2023-06-10T01:20:37;7.47;;;4.40;;
60086;SDS011;45960;53.630;55.972;2023-06-10T01:21:45;12.60;;;4.75;;
60086;SDS011;45960;53.630;55.972;2023-06-10T01:22:50;8.52;;;4.15;;
60086;SDS011;45960;53.630;55.972;2023-06-10T01:23:53;11.98;;;4.00;;
60086;SDS011;45960;53.630;55.972;2023-06-10T01:24:58;7.97;;;3.80;;
60086;SDS011;45960;53.630;55.972;2023-06-10T01:26:00;14.75;;;3.55;;
60086;SDS011;45960;53.630;55.972;2023-06-10T01:27:08;9.88;;;3.67;;
60086;SDS011;45960;53.630;55.972;2023-06-10T01:28:19;9.55;;;3.78;;
60086;SDS011;45960;53.630;55.972;2023-06-10T01:29:26;8.93;;;4.13;;
60086;SDS011;45960;53.630;55.972;2023-06-10T01:30:59;12.48;;;4.25;;
60086;SDS011;45960;53.630;55.972;2023-06-10T01:32:05;10.18;;;4.63;;
60086;SDS011;45960;53.630;55.972;2023-06-10T01:33:12;9.20;;;4.85;;
60086;SDS011;45960;53.630;55.972;2023-06-10T01:34:16;9.02;;;4.03;;
60086;SDS011;45960;53.630;55.972;2023-06-10T01:35:19;8.63;;;3.70;;
60086;SDS011;45960;53.630;55.972;2023-06-10T01:36:25;12.25;;;3.70;;
60086;SDS011;45960;53.630;55.972;2023-06-10T01:37:28;8.48;;;3.90;;
60086;SDS011;45960;53.630;55.972;2023-06-10T01:38:32;10.95;;;3.55;;
60086;SDS011;45960;53.630;55.972;2023-06-10T01:39:37;7.47;;;3.58;;
60086;SDS011;45960;53.630;55.972;2023-06-10T01:40:40;8.00;;;3.75;;
60086;SDS011;45960;53.630;55.972;2023-06-10T01:41:42;14.43;;;3.72;;
60086;SDS011;45960;53.630;55.972;2023-06-10T01:42:45;13.65;;;4.20;;
60086;SDS011;45960;53.630;55.972;2023-06-10T01:43:47;10.60;;;4.10;;
60086;SDS011;45960;53.630;55.972;2023-06-10T01:44:49;10.20;;;4.30;;
60086;SDS011;45960;53.630;55.972;2023-06-10T01:45:50;9.60;;;4.50;;
60086;SDS011;45960;53.630;55.972;2023-06-10T01:46:51;9.00;;;4.65;;
60086;SDS011;45960;53.630;55.972;2023-06-10T01:47:52;8.13;;;4.13;;
60086;SDS011;45960;53.630;55.972;2023-06-10T01:48:54;8.95;;;4.85;;
60086;SDS011;45960;53.630;55.972;2023-06-10T01:49:55;7.95;;;4.13;;
60086;SDS011;45960;53.630;55.972;2023-06-10T01:50:57;8.85;;;4.10;;
60086;SDS011;45960;53.630;55.972;2023-06-10T01:51:58;12.52;;;4.05;;
60086;SDS011;45960;53.630;55.972;2023-06-10T01:52:59;11.13;;;4.15;;
60086;SDS011;45960;53.630;55.972;2023-06-10T01:54:01;20.48;;;4.95;;
60086;SDS011;45960;53.630;55.972;2023-06-10T01:55:02;13.48;;;4.47;;
60086;SDS011;45960;53.630;55.972;2023-06-10T01:56:04;9.75;;;3.95;;
60086;SDS011;45960;53.630;55.972;2023-06-10T01:57:06;8.20;;;3.95;;
60086;SDS011;45960;53.630;55.972;2023-06-10T01:58:07;8.82;;;4.10;;
60086;SDS011;45960;53.630;55.972;2023-06-10T01:59:08;11.70;;;5.45;;
60086;SDS011;45960;53.630;55.972;2023-06-10T02:00:09;9.15;;;4.10;;
60086;SDS011;45960;53.630;55.972;2023-06-10T02:01:16;9.57;;;4.75;;
60086;SDS011;45960;53.630;55.972;2023-06-10T02:02:17;8.35;;;4.32;;
60086;SDS011;45960;53.630;55.972;2023-06-10T02:03:19;16.20;;;4.97;;
60086;SDS011;45960;53.630;55.972;2023-06-10T02:04:20;9.65;;;4.25;;
60086;SDS011;45960;53.630;55.972;2023-06-10T02:05:21;8.38;;;4.88;;
60086;SDS011;45960;53.630;55.972;2023-06-10T02:06:23;8.98;;;4.80;;
60086;SDS011;45960;53.630;55.972;2023-06-10T02:07:24;9.05;;;3.97;;
60086;SDS011;45960;53.630;55.972;2023-06-10T02:08:25;6.55;;;4.32;;
60086;SDS011;45960;53.630;55.972;2023-06-10T02:09:28;10.70;;;3.88;;
60086;SDS011;45960;53.630;55.972;2023-06-10T02:10:31;10.68;;;4.20;;
60086;SDS011;45960;53.630;55.972;2023-06-10T02:11:33;11.13;;;4.78;;
60086;SDS011;45960;53.630;55.972;2023-06-10T02:12:34;7.93;;;4.15;;
60086;SDS011;45960;53.630;55.972;2023-06-10T02:13:37;9.30;;;3.80;;
60086;SDS011;45960;53.630;55.972;2023-06-10T02:14:39;9.52;;;3.72;;
60086;SDS011;45960;53.630;55.972;2023-06-10T02:15:40;11.57;;;3.80;;
60086;SDS011;45960;53.630;55.972;2023-06-10T02:16:41;6.05;;;3.53;;
60086;SDS011;45960;53.630;55.972;2023-06-10T02:17:46;9.23;;;3.55;;
60086;SDS011;45960;53.630;55.972;2023-06-10T02:18:47;9.35;;;3.65;;
60086;SDS011;45960;53.630;55.972;2023-06-10T02:19:49;9.77;;;3.63;;
60086;SDS011;45960;53.630;55.972;2023-06-10T02:20:53;9.18;;;4.20;;
60086;SDS011;45960;53.630;55.972;2023-06-10T02:21:54;11.45;;;3.88;;
60086;SDS011;45960;53.630;55.972;2023-06-10T02:22:55;13.93;;;3.95;;
60086;SDS011;45960;53.630;55.972;2023-06-10T02:23:56;7.72;;;3.97;;
60086;SDS011;45960;53.630;55.972;2023-06-10T02:25:04;11.43;;;4.20;;
60086;SDS011;45960;53.630;55.972;2023-06-10T02:26:06;11.60;;;4.97;;
60086;SDS011;45960;53.630;55.972;2023-06-10T02:27:07;22.50;;;5.22;;
60086;SDS011;45960;53.630;55.972;2023-06-10T02:28:08;7.97;;;4.25;;
60086;SDS011;45960;53.630;55.972;2023-06-10T02:29:09;9.30;;;4.20;;
60086;SDS011;45960;53.630;55.972;2023-06-10T02:30:11;7.90;;;4.03;;
60086;SDS011;45960;53.630;55.972;2023-06-10T02:31:14;6.78;;;3.88;;
60086;SDS011;45960;53.630;55.972;2023-06-10T02:32:19;8.80;;;3.92;;
60086;SDS011;45960;53.630;55.972;2023-06-10T02:33:20;7.78;;;3.70;;
60086;SDS011;45960;53.630;55.972;2023-06-10T02:34:21;15.70;;;4.13;;
60086;SDS011;45960;53.630;55.972;2023-06-10T02:35:23;10.05;;;4.80;;
60086;SDS011;45960;53.630;55.972;2023-06-10T02:36:26;15.05;;;4.10;;
60086;SDS011;45960;53.630;55.972;2023-06-10T02:37:28;9.20;;;4.30;;
60086;SDS011;45960;53.630;55.972;2023-06-10T02:38:31;15.85;;;4.38;;
60086;SDS011;45960;53.630;55.972;2023-06-10T02:39:33;14.15;;;4.90;;
60086;SDS011;45960;53.630;55.972;2023-06-10T02:40:40;15.45;;;4.57;;
60086;SDS011;45960;53.630;55.972;2023-06-10T02:41:43;12.25;;;4.40;;
60086;SDS011;45960;53.630;55.972;2023-06-10T02:42:45;11.63;;;4.65;;
60086;SDS011;45960;53.630;55.972;2023-06-10T02:43:46;10.93;;;4.05;;
60086;SDS011;45960;53.630;55.972;2023-06-10T02:44:47;12.65;;;4.13;;
60086;SDS011;45960;53.630;55.972;2023-06-10T02:45:54;11.15;;;3.60;;
60086;SDS011;45960;53.630;55.972;2023-06-10T02:46:56;6.47;;;3.03;;
60086;SDS011;45960;53.630;55.972;2023-06-10T02:47:57;12.57;;;3.38;;
60086;SDS011;45960;53.630;55.972;2023-06-10T02:48:58;8.77;;;3.17;;
60086;SDS011;45960;53.630;55.972;2023-06-10T02:50:00;11.52;;;3.25;;
60086;SDS011;45960;53.630;55.972;2023-06-10T02:51:05;12.60;;;3.00;;
60086;SDS011;45960;53.630;55.972;2023-06-10T02:52:14;6.78;;;3.33;;
60086;SDS011;45960;53.630;55.972;2023-06-10T02:53:16;6.55;;;2.95;;
60086;SDS011;45960;53.630;55.972;2023-06-10T02:54:22;5.63;;;2.47;;
60086;SDS011;45960;53.630;55.972;2023-06-10T02:55:26;9.85;;;2.83;;
60086;SDS011;45960;53.630;55.972;2023-06-10T02:56:32;7.57;;;2.90;;
60086;SDS011;45960;53.630;55.972;2023-06-10T02:57:39;6.07;;;2.38;;
60086;SDS011;45960;53.630;55.972;2023-06-10T02:58:41;6.80;;;2.88;;
60086;SDS011;45960;53.630;55.972;2023-06-10T02:59:43;8.82;;;2.95;;
60086;SDS011;45960;53.630;55.972;2023-06-10T03:00:45;9.20;;;2.80;;
60086;SDS011;45960;53.630;55.972;2023-06-10T03:01:47;6.85;;;2.80;;
60086;SDS011;45960;53.630;55.972;2023-06-10T03:02:48;7.53;;;3.70;;
60086;SDS011;45960;53.630;55.972;2023-06-10T03:03:51;6.40;;;3.30;;
60086;SDS011;45960;53.630;55.972;2023-06-10T03:04:56;9.40;;;3.03;;
60086;SDS011;45960;53.630;55.972;2023-06-10T03:05:57;7.75;;;3.10;;
60086;SDS011;45960;53.630;55.972;2023-06-10T03:07:00;6.55;;;2.88;;
60086;SDS011;45960;53.630;55.972;2023-06-10T03:08:06;7.22;;;3.10;;
60086;SDS011;45960;53.630;55.972;2023-06-10T03:09:10;7.95;;;3.55;;
60086;SDS011;45960;53.630;55.972;2023-06-10T03:10:14;9.15;;;2.90;;
60086;SDS011;45960;53.630;55.972;2023-06-10T03:11:16;8.02;;;3.10;;
60086;SDS011;45960;53.630;55.972;2023-06-10T03:12:17;11.35;;;3.50;;
60086;SDS011;45960;53.630;55.972;2023-06-10T03:13:22;9.45;;;3.70;;
60086;SDS011;45960;53.630;55.972;2023-06-10T03:14:25;12.07;;;3.17;;
60086;SDS011;45960;53.630;55.972;2023-06-10T03:15:26;8.13;;;2.80;;
60086;SDS011;45960;53.630;55.972;2023-06-10T03:16:30;9.82;;;3.08;;
60086;SDS011;45960;53.630;55.972;2023-06-10T03:17:32;8.70;;;3.45;;
60086;SDS011;45960;53.630;55.972;2023-06-10T03:18:33;10.82;;;3.30;;
60086;SDS011;45960;53.630;55.972;2023-06-10T03:19:35;8.35;;;2.78;;
60086;SDS011;45960;53.630;55.972;2023-06-10T03:20:42;9.25;;;3.45;;
60086;SDS011;45960;53.630;55.972;2023-06-10T03:21:49;13.02;;;2.92;;
60086;SDS011;45960;53.630;55.972;2023-06-10T03:22:55;10.93;;;3.15;;
60086;SDS011;45960;53.630;55.972;2023-06-10T03:23:56;10.98;;;2.88;;
60086;SDS011;45960;53.630;55.972;2023-06-10T03:24:58;9.23;;;2.90;;
60086;SDS011;45960;53.630;55.972;2023-06-10T03:26:01;14.95;;;3.33;;
60086;SDS011;45960;53.630;55.972;2023-06-10T03:27:04;13.48;;;3.40;;
60086;SDS011;45960;53.630;55.972;2023-06-10T03:28:09;8.45;;;3.08;;
60086;SDS011;45960;53.630;55.972;2023-06-10T03:29:10;14.68;;;2.95;;
60086;SDS011;45960;53.630;55.972;2023-06-10T03:30:12;12.02;;;3.13;;
60086;SDS011;45960;53.630;55.972;2023-06-10T03:31:15;7.63;;;2.47;;
60086;SDS011;45960;53.630;55.972;2023-06-10T03:32:17;8.20;;;2.58;;
60086;SDS011;45960;53.630;55.972;2023-06-10T03:33:19;7.43;;;3.00;;
60086;SDS011;45960;53.630;55.972;2023-06-10T03:34:20;10.82;;;3.33;;
60086;SDS011;45960;53.630;55.972;2023-06-10T03:35:22;4.60;;;2.67;;
60086;SDS011;45960;53.630;55.972;2023-06-10T03:36:23;11.50;;;2.63;;
60086;SDS011;45960;53.630;55.972;2023-06-10T03:37:25;7.53;;;2.90;;
60086;SDS011;45960;53.630;55.972;2023-06-10T03:38:27;7.78;;;3.20;;
60086;SDS011;45960;53.630;55.972;2023-06-10T03:39:29;7.85;;;2.63;;
60086;SDS011;45960;53.630;55.972;2023-06-10T03:40:32;12.70;;;3.00;;
60086;SDS011;45960;53.630;55.972;2023-06-10T03:41:35;10.10;;;2.65;;
60086;SDS011;45960;53.630;55.972;2023-06-10T03:42:41;8.10;;;3.15;;
60086;SDS011;45960;53.630;55.972;2023-06-10T03:43:44;12.52;;;3.40;;
60086;SDS011;45960;53.630;55.972;2023-06-10T03:44:47;5.70;;;3.00;;
60086;SDS011;45960;53.630;55.972;2023-06-10T03:45:48;9.48;;;2.75;;
60086;SDS011;45960;53.630;55.972;2023-06-10T03:46:50;5.45;;;2.83;;
60086;SDS011;45960;53.630;55.972;2023-06-10T03:47:53;10.25;;;2.72;;
60086;SDS011;45960;53.630;55.972;2023-06-10T03:48:57;12.95;;;2.90;;
60086;SDS011;45960;53.630;55.972;2023-06-10T03:50:03;8.35;;;2.75;;
60086;SDS011;45960;53.630;55.972;2023-06-10T03:51:05;8.75;;;2.72;;
60086;SDS011;45960;53.630;55.972;2023-06-10T03:52:07;9.27;;;2.90;;
60086;SDS011;45960;53.630;55.972;2023-06-10T03:53:08;12.55;;;3.28;;
60086;SDS011;45960;53.630;55.972;2023-06-10T03:54:10;12.27;;;2.90;;
60086;SDS011;45960;53.630;55.972;2023-06-10T03:55:11;12.30;;;2.63;;
60086;SDS011;45960;53.630;55.972;2023-06-10T03:56:17;13.90;;;2.75;;
60086;SDS011;45960;53.630;55.972;2023-06-10T03:57:18;12.95;;;3.28;;
60086;SDS011;45960;53.630;55.972;2023-06-10T03:58:23;9.48;;;2.63;;
60086;SDS011;45960;53.630;55.972;2023-06-10T03:59:25;10.30;;;2.58;;
60086;SDS011;45960;53.630;55.972;2023-06-10T04:00:27;6.78;;;2.90;;
60086;SDS011;45960;53.630;55.972;2023-06-10T04:01:29;10.90;;;3.00;;
60086;SDS011;45960;53.630;55.972;2023-06-10T04:02:30;7.97;;;2.88;;
60086;SDS011;45960;53.630;55.972;2023-06-10T04:03:33;8.45;;;2.38;;
60086;SDS011;45960;53.630;55.972;2023-06-10T04:04:34;8.50;;;2.78;;
60086;SDS011;45960;53.630;55.972;2023-06-10T04:05:38;10.15;;;2.72;;
60086;SDS011;45960;53.630;55.972;2023-06-10T04:06:39;8.13;;;3.15;;
60086;SDS011;45960;53.630;55.972;2023-06-10T04:07:42;9.95;;;2.78;;
60086;SDS011;45960;53.630;55.972;2023-06-10T04:08:45;13.30;;;2.53;;
60086;SDS011;45960;53.630;55.972;2023-06-10T04:09:46;8.40;;;2.55;;
60086;SDS011;45960;53.630;55.972;2023-06-10T04:10:48;8.48;;;2.45;;
60086;SDS011;45960;53.630;55.972;2023-06-10T04:11:49;7.68;;;2.47;;
60086;SDS011;45960;53.630;55.972;2023-06-10T04:12:50;4.38;;;2.33;;
60086;SDS011;45960;53.630;55.972;2023-06-10T04:13:52;6.45;;;2.15;;
60086;SDS011;45960;53.630;55.972;2023-06-10T04:14:53;6.70;;;2.22;;
60086;SDS011;45960;53.630;55.972;2023-06-10T04:15:54;9.32;;;2.75;;
60086;SDS011;45960;53.630;55.972;2023-06-10T04:16:55;6.95;;;2.00;;
60086;SDS011;45960;53.630;55.972;2023-06-10T04:17:57;9.80;;;2.38;;
60086;SDS011;45960;53.630;55.972;2023-06-10T04:18:59;5.18;;;2.30;;
60086;SDS011;45960;53.630;55.972;2023-06-10T04:20:01;7.47;;;2.25;;
60086;SDS011;45960;53.630;55.972;2023-06-10T04:21:05;8.23;;;2.25;;
60086;SDS011;45960;53.630;55.972;2023-06-10T04:22:07;5.75;;;2.50;;
60086;SDS011;45960;53.630;55.972;2023-06-10T04:23:08;14.82;;;2.50;;
60086;SDS011;45960;53.630;55.972;2023-06-10T04:24:09;8.13;;;2.30;;
60086;SDS011;45960;53.630;55.972;2023-06-10T04:25:11;8.95;;;2.10;;
60086;SDS011;45960;53.630;55.972;2023-06-10T04:26:13;10.13;;;2.15;;
60086;SDS011;45960;53.630;55.972;2023-06-10T04:27:15;10.35;;;1.92;;
60086;SDS011;45960;53.630;55.972;2023-06-10T04:28:16;11.80;;;2.90;;
60086;SDS011;45960;53.630;55.972;2023-06-10T04:29:18;11.50;;;2.53;;
60086;SDS011;45960;53.630;55.972;2023-06-10T04:30:19;4.50;;;1.70;;
60086;SDS011;45960;53.630;55.972;2023-06-10T04:31:21;11.63;;;1.88;;
60086;SDS011;45960;53.630;55.972;2023-06-10T04:32:22;5.88;;;1.92;;
60086;SDS011;45960;53.630;55.972;2023-06-10T04:33:24;14.88;;;2.40;;
60086;SDS011;45960;53.630;55.972;2023-06-10T04:34:25;14.25;;;2.22;;
60086;SDS011;45960;53.630;55.972;2023-06-10T04:35:27;11.10;;;2.72;;
60086;SDS011;45960;53.630;55.972;2023-06-10T04:36:29;6.28;;;2.63;;
60086;SDS011;45960;53.630;55.972;2023-06-10T04:37:30;7.25;;;1.88;;
60086;SDS011;45960;53.630;55.972;2023-06-10T04:38:32;12.40;;;2.30;;
60086;SDS011;45960;53.630;55.972;2023-06-10T04:39:35;10.82;;;2.63;;
60086;SDS011;45960;53.630;55.972;2023-06-10T04:40:37;7.88;;;1.95;;
60086;SDS011;45960;53.630;55.972;2023-06-10T04:41:39;9.55;;;1.90;;
60086;SDS011;45960;53.630;55.972;2023-06-10T04:42:41;6.30;;;2.08;;
60086;SDS011;45960;53.630;55.972;2023-06-10T04:43:42;7.85;;;2.40;;
60086;SDS011;45960;53.630;55.972;2023-06-10T04:44:45;6.75;;;2.05;;
60086;SDS011;45960;53.630;55.972;2023-06-10T04:45:47;12.68;;;2.08;;
60086;SDS011;45960;53.630;55.972;2023-06-10T04:46:49;8.32;;;1.80;;
60086;SDS011;45960;53.630;55.972;2023-06-10T04:47:50;8.75;;;2.88;;
60086;SDS011;45960;53.630;55.972;2023-06-10T04:48:52;11.35;;;3.10;;
60086;SDS011;45960;53.630;55.972;2023-06-10T04:49:55;9.60;;;3.45;;
60086;SDS011;45960;53.630;55.972;2023-06-10T04:50:56;9.23;;;3.85;;
60086;SDS011;45960;53.630;55.972;2023-06-10T04:51:58;10.98;;;4.57;;
60086;SDS011;45960;53.630;55.972;2023-06-10T04:53:01;9.60;;;4.47;;
60086;SDS011;45960;53.630;55.972;2023-06-10T04:54:02;19.88;;;4.57;;
60086;SDS011;45960;53.630;55.972;2023-06-10T04:55:04;9.57;;;4.90;;
60086;SDS011;45960;53.630;55.972;2023-06-10T04:56:05;13.85;;;4.90;;
60086;SDS011;45960;53.630;55.972;2023-06-10T04:57:08;7.85;;;4.18;;
60086;SDS011;45960;53.630;55.972;2023-06-10T04:58:09;8.90;;;4.32;;
60086;SDS011;45960;53.630;55.972;2023-06-10T04:59:10;10.30;;;4.03;;
60086;SDS011;45960;53.630;55.972;2023-06-10T05:00:11;16.88;;;4.25;;
60086;SDS011;45960;53.630;55.972;2023-06-10T05:01:13;9.82;;;3.13;;
60086;SDS011;45960;53.630;55.972;2023-06-10T05:02:14;10.27;;;3.75;;
60086;SDS011;45960;53.630;55.972;2023-06-10T05:03:15;7.47;;;2.95;;
60086;SDS011;45960;53.630;55.972;2023-06-10T05:04:16;16.77;;;3.42;;
60086;SDS011;45960;53.630;55.972;2023-06-10T05:05:17;10.38;;;2.90;;
60086;SDS011;45960;53.630;55.972;2023-06-10T05:06:18;11.00;;;3.00;;
60086;SDS011;45960;53.630;55.972;2023-06-10T05:07:20;10.07;;;2.92;;
60086;SDS011;45960;53.630;55.972;2023-06-10T05:08:21;10.02;;;2.80;;
60086;SDS011;45960;53.630;55.972;2023-06-10T05:09:22;9.00;;;2.50;;
60086;SDS011;45960;53.630;55.972;2023-06-10T05:10:23;8.05;;;2.50;;
60086;SDS011;45960;53.630;55.972;2023-06-10T05:11:24;8.95;;;3.03;;
60086;SDS011;45960;53.630;55.972;2023-06-10T05:12:25;5.20;;;1.85;;
60086;SDS011;45960;53.630;55.972;2023-06-10T05:13:27;16.70;;;2.50;;
60086;SDS011;45960;53.630;55.972;2023-06-10T05:14:28;5.30;;;2.10;;
60086;SDS011;45960;53.630;55.972;2023-06-10T05:15:29;7.57;;;2.20;;
60086;SDS011;45960;53.630;55.972;2023-06-10T05:16:32;4.55;;;1.73;;
60086;SDS011;45960;53.630;55.972;2023-06-10T05:17:33;7.10;;;2.20;;
60086;SDS011;45960;53.630;55.972;2023-06-10T05:18:35;6.80;;;1.70;;
60086;SDS011;45960;53.630;55.972;2023-06-10T05:19:37;4.88;;;2.38;;
60086;SDS011;45960;53.630;55.972;2023-06-10T05:20:38;6.40;;;1.88;;
60086;SDS011;45960;53.630;55.972;2023-06-10T05:21:39;8.02;;;2.15;;
60086;SDS011;45960;53.630;55.972;2023-06-10T05:22:41;11.23;;;2.35;;
60086;SDS011;45960;53.630;55.972;2023-06-10T05:23:42;11.50;;;2.55;;
60086;SDS011;45960;53.630;55.972;2023-06-10T05:24:46;12.10;;;3.13;;
60086;SDS011;45960;53.630;55.972;2023-06-10T05:25:47;13.10;;;3.33;;
60086;SDS011;45960;53.630;55.972;2023-06-10T05:26:48;11.68;;;4.03;;
60086;SDS011;45960;53.630;55.972;2023-06-10T05:27:50;9.25;;;3.58;;
60086;SDS011;45960;53.630;55.972;2023-06-10T05:28:51;17.23;;;2.85;;
60086;SDS011;45960;53.630;55.972;2023-06-10T05:29:53;10.07;;;1.88;;
60086;SDS011;45960;53.630;55.972;2023-06-10T05:30:54;11.13;;;1.77;;
60086;SDS011;45960;53.630;55.972;2023-06-10T05:31:55;10.30;;;2.40;;
60086;SDS011;45960;53.630;55.972;2023-06-10T05:32:58;7.00;;;2.50;;
60086;SDS011;45960;53.630;55.972;2023-06-10T05:33:59;6.40;;;2.33;;
60086;SDS011;45960;53.630;55.972;2023-06-10T05:35:00;5.20;;;2.25;;
60086;SDS011;45960;53.630;55.972;2023-06-10T05:36:01;11.90;;;4.45;;
60086;SDS011;45960;53.630;55.972;2023-06-10T05:37:03;12.25;;;5.03;;
60086;SDS011;45960;53.630;55.972;2023-06-10T05:38:04;14.50;;;3.72;;
60086;SDS011;45960;53.630;55.972;2023-06-10T05:39:05;10.90;;;3.47;;
60086;SDS011;45960;53.630;55.972;2023-06-10T05:40:06;14.80;;;4.78;;
60086;SDS011;45960;53.630;55.972;2023-06-10T05:41:08;19.52;;;5.32;;
60086;SDS011;45960;53.630;55.972;2023-06-10T05:42:09;17.27;;;5.80;;
60086;SDS011;45960;53.630;55.972;2023-06-10T05:43:10;12.27;;;6.43;;
60086;SDS011;45960;53.630;55.972;2023-06-10T05:44:12;11.65;;;6.45;;
60086;SDS011;45960;53.630;55.972;2023-06-10T05:45:13;13.30;;;5.15;;
60086;SDS011;45960;53.630;55.972;2023-06-10T05:46:14;10.35;;;4.55;;
60086;SDS011;45960;53.630;55.972;2023-06-10T05:47:15;6.60;;;3.38;;
60086;SDS011;45960;53.630;55.972;2023-06-10T05:48:16;9.63;;;3.78;;
60086;SDS011;45960;53.630;55.972;2023-06-10T05:49:17;9.13;;;3.78;;
60086;SDS011;45960;53.630;55.972;2023-06-10T05:50:18;13.60;;;2.75;;
60086;SDS011;45960;53.630;55.972;2023-06-10T05:51:20;12.07;;;3.03;;
60086;SDS011;45960;53.630;55.972;2023-06-10T05:52:21;10.40;;;3.42;;
60086;SDS011;45960;53.630;55.972;2023-06-10T05:53:22;12.43;;;2.88;;
60086;SDS011;45960;53.630;55.972;2023-06-10T05:54:23;10.13;;;3.30;;
60086;SDS011;45960;53.630;55.972;2023-06-10T05:55:24;10.48;;;3.88;;
60086;SDS011;45960;53.630;55.972;2023-06-10T05:56:25;8.80;;;3.17;;
60086;SDS011;45960;53.630;55.972;2023-06-10T05:57:27;12.40;;;6.15;;
60086;SDS011;45960;53.630;55.972;2023-06-10T05:58:28;13.73;;;6.35;;
60086;SDS011;45960;53.630;55.972;2023-06-10T05:59:29;12.00;;;5.75;;
60086;SDS011;45960;53.630;55.972;2023-06-10T06:00:30;20.38;;;5.80;;
60086;SDS011;45960;53.630;55.972;2023-06-10T06:01:31;17.70;;;5.95;;
60086;SDS011;45960;53.630;55.972;2023-06-10T06:02:32;12.57;;;4.68;;
60086;SDS011;45960;53.630;55.972;2023-06-10T06:03:33;10.75;;;4.78;;
60086;SDS011;45960;53.630;55.972;2023-06-10T06:04:34;11.38;;;2.92;;
60086;SDS011;45960;53.630;55.972;2023-06-10T06:05:36;7.95;;;2.95;;
60086;SDS011;45960;53.630;55.972;2023-06-10T06:06:38;7.70;;;2.83;;
60086;SDS011;45960;53.630;55.972;2023-06-10T06:07:41;6.97;;;2.53;;
60086;SDS011;45960;53.630;55.972;2023-06-10T06:08:42;7.13;;;2.13;;
60086;SDS011;45960;53.630;55.972;2023-06-10T06:09:43;10.38;;;2.50;;
60086;SDS011;45960;53.630;55.972;2023-06-10T06:10:44;12.68;;;2.42;;
60086;SDS011;45960;53.630;55.972;2023-06-10T06:11:46;8.35;;;2.70;;
60086;SDS011;45960;53.630;55.972;2023-06-10T06:12:47;9.38;;;2.45;;
60086;SDS011;45960;53.630;55.972;2023-06-10T06:13:48;11.45;;;2.97;;